createdAt,value
2018-08-14T00:00:31.912Z,41.77
2018-08-14T00:03:00.721Z,43.20
2018-08-14T00:05:29.417Z,43.67
2018-08-14T00:07:57.734Z,45.07
2018-08-14T00:10:26.485Z,43.33
2018-08-14T00:12:54.788Z,47.60
2018-08-14T00:15:23.216Z,44.43
2018-08-14T00:17:51.520Z,46.30
2018-08-14T00:20:21.302Z,46.80
2018-08-14T00:22:49.673Z,48.50
2018-08-14T00:25:18.092Z,48.93
2018-08-14T00:27:46.552Z,48.93
2018-08-14T00:30:18.872Z,46.67
2018-08-14T00:32:48.317Z,49.07
2018-08-14T00:35:16.709Z,47.27
2018-08-14T00:37:45.041Z,49.53
2018-08-14T00:40:21.236Z,48.53
2018-08-14T00:42:51.450Z,48.20
2018-08-14T00:45:20.558Z,47.17
2018-08-14T00:47:49.577Z,51.33
2018-08-14T00:50:18.057Z,51.57
2018-08-14T00:52:46.733Z,48.37
2018-08-14T00:55:16.208Z,48.90
2018-08-14T00:57:45.133Z,50.73
2018-08-14T01:00:19.017Z,49.60
2018-08-14T01:02:47.828Z,48.73
2018-08-14T01:05:16.601Z,49.33
2018-08-14T01:07:45.405Z,51.13
2018-08-14T01:10:14.464Z,53.20
2018-08-14T01:12:47.130Z,50.53
2018-08-14T01:15:16.957Z,49.37
2018-08-14T01:17:46.185Z,53.13
2018-08-14T01:20:15.326Z,53.13
2018-08-14T01:22:45.112Z,53.40
2018-08-14T01:25:13.541Z,51.17
2018-08-14T01:27:42.025Z,53.87
2018-08-14T01:30:14.084Z,52.30
2018-08-14T01:32:43.245Z,51.83
2018-08-14T01:35:11.529Z,52.07
2018-08-14T01:37:40.053Z,51.80
2018-08-14T01:40:08.525Z,54.83
2018-08-14T01:42:36.833Z,53.23
2018-08-14T01:45:05.989Z,54.53
2018-08-14T01:47:34.345Z,56.23
2018-08-14T01:50:02.722Z,56.63
2018-08-14T01:52:31.245Z,53.40
2018-08-14T01:54:59.565Z,57.77
2018-08-14T01:57:28.201Z,55.23
2018-08-14T01:59:56.493Z,54.10
2018-08-14T02:02:24.776Z,51.43
2018-08-14T02:04:53.061Z,53.90
2018-08-14T02:07:21.519Z,54.00
2018-08-14T02:09:49.793Z,53.90
2018-08-14T02:12:18.069Z,52.47
2018-08-14T02:14:46.376Z,55.80
2018-08-14T02:17:14.649Z,52.93
2018-08-14T02:19:42.945Z,55.90
2018-08-14T02:22:11.199Z,57.57
2018-08-14T02:24:39.729Z,52.53
2018-08-14T02:27:08.076Z,50.90
2018-08-14T02:29:36.325Z,51.97
2018-08-14T02:32:04.681Z,48.77
2018-08-14T02:34:32.937Z,49.37
2018-08-14T02:37:01.245Z,48.67
2018-08-14T02:39:29.533Z,49.50
2018-08-14T02:41:57.873Z,47.80
2018-08-14T02:44:26.149Z,49.40
2018-08-14T02:46:54.452Z,47.33
2018-08-14T02:49:22.738Z,44.03
2018-08-14T02:51:51.052Z,45.03
2018-08-14T02:54:19.325Z,42.30
2018-08-14T02:56:47.649Z,42.87
2018-08-14T02:59:16.019Z,44.70
2018-08-14T03:01:44.341Z,43.63
2018-08-14T03:04:12.664Z,44.27
2018-08-14T03:06:40.973Z,43.30
2018-08-14T03:09:10.701Z,42.60
2018-08-14T03:11:39.408Z,41.27
2018-08-14T03:14:08.272Z,40.87
2018-08-14T03:16:36.597Z,41.37
2018-08-14T03:19:05.232Z,41.10
2018-08-14T03:21:33.726Z,37.60
2018-08-14T03:24:02.166Z,42.60
2018-08-14T03:26:30.603Z,43.13
2018-08-14T03:28:58.933Z,41.00
2018-08-14T03:31:27.459Z,42.40
2018-08-14T03:33:55.849Z,42.33
2018-08-14T03:36:24.264Z,43.20
2018-08-14T03:38:52.541Z,39.97
2018-08-14T03:41:20.833Z,40.27
2018-08-14T03:43:49.141Z,38.70
2018-08-14T03:46:17.413Z,38.03
2018-08-14T03:48:45.688Z,39.20
2018-08-14T03:51:13.932Z,39.10
2018-08-14T03:53:42.248Z,39.50
2018-08-14T03:56:10.588Z,38.83
2018-08-14T03:58:38.882Z,37.00
2018-08-14T04:01:07.173Z,38.10
2018-08-14T04:03:35.564Z,36.20
2018-08-14T04:06:03.970Z,35.80
2018-08-14T04:08:32.225Z,36.87
2018-08-14T04:11:00.480Z,31.13
2018-08-14T04:13:28.757Z,33.17
2018-08-14T04:15:57.034Z,33.50
2018-08-14T04:18:25.404Z,32.57
2018-08-14T04:20:53.696Z,35.17
2018-08-14T04:23:21.956Z,32.50
2018-08-14T04:25:50.249Z,33.23
2018-08-14T04:28:18.515Z,31.87
2018-08-14T04:30:46.784Z,28.50
2018-08-14T04:33:15.046Z,29.83
2018-08-14T04:35:43.493Z,31.40
2018-08-14T04:38:11.737Z,28.70
2018-08-14T04:40:40.021Z,28.77
2018-08-14T04:43:08.305Z,28.20
2018-08-14T04:45:37.120Z,28.63
2018-08-14T04:48:05.554Z,25.33
2018-08-14T04:50:34.188Z,27.50
2018-08-14T04:53:03.558Z,26.60
2018-08-14T04:55:31.852Z,27.10
2018-08-14T04:58:00.105Z,25.47
2018-08-14T05:00:28.393Z,24.33
2018-08-14T05:02:56.656Z,24.27
2018-08-14T05:05:24.984Z,24.60
2018-08-14T05:07:53.236Z,25.50
2018-08-14T05:10:21.502Z,24.13
2018-08-14T05:12:49.776Z,25.80
2018-08-14T05:15:18.030Z,22.50
2018-08-14T05:17:46.303Z,25.50
2018-08-14T05:20:14.749Z,23.53
2018-08-14T05:22:43.552Z,22.70
2018-08-14T05:25:11.889Z,21.93
2018-08-14T05:27:40.191Z,21.80
2018-08-14T05:30:12.577Z,21.40
2018-08-14T05:32:40.863Z,19.47
2018-08-14T05:35:09.625Z,20.43
2018-08-14T05:37:37.969Z,20.97
2018-08-14T05:40:06.488Z,19.97
2018-08-14T05:42:34.817Z,19.87
2018-08-14T05:45:03.133Z,21.20
2018-08-14T05:47:31.508Z,18.83
2018-08-14T05:49:59.776Z,19.20
2018-08-14T05:52:28.081Z,20.47
2018-08-14T05:54:56.344Z,18.60
2018-08-14T05:57:24.641Z,17.60
2018-08-14T05:59:53.045Z,15.90
2018-08-14T06:02:21.313Z,15.80
2018-08-14T06:08:21.237Z,15.10
2018-08-14T06:10:49.513Z,14.20
2018-08-14T06:13:17.786Z,14.00
2018-08-14T06:15:46.085Z,14.30
2018-08-14T06:18:14.418Z,14.47
2018-08-14T06:20:42.697Z,13.97
2018-08-14T06:23:11.013Z,12.00
2018-08-14T06:25:39.301Z,13.80
2018-08-14T06:28:07.605Z,13.30
2018-08-14T06:30:35.891Z,14.00
2018-08-14T06:33:04.157Z,12.90
2018-08-14T06:35:32.517Z,14.30
2018-08-14T06:38:00.766Z,13.63
2018-08-14T06:40:29.409Z,12.50
2018-08-14T06:42:57.700Z,13.53
2018-08-14T06:45:25.992Z,14.57
2018-08-14T06:47:55.329Z,14.97
2018-08-14T06:50:23.693Z,14.00
2018-08-14T06:52:52.103Z,13.90
2018-08-14T06:55:20.447Z,14.43
2018-08-14T06:57:48.709Z,14.10
2018-08-14T07:00:19.568Z,13.10
2018-08-14T07:02:48.452Z,14.37
2018-08-14T07:05:16.880Z,14.87
2018-08-14T07:07:45.153Z,13.97
2018-08-14T07:10:13.465Z,13.97
2018-08-14T07:12:41.812Z,14.10
2018-08-14T07:15:14.565Z,13.37
2018-08-14T07:17:42.873Z,13.67
2018-08-14T07:20:12.002Z,14.30
2018-08-14T07:22:41.324Z,14.10
2018-08-14T07:25:09.894Z,15.43
2018-08-14T07:27:38.612Z,13.90
2018-08-14T07:30:15.964Z,13.73
2018-08-14T07:32:44.572Z,15.40
2018-08-14T07:35:12.911Z,15.03
2018-08-14T07:37:41.840Z,14.13
2018-08-14T07:40:10.229Z,15.70
2018-08-14T07:42:39.585Z,15.10
2018-08-14T07:45:09.873Z,17.13
2018-08-14T07:50:31.309Z,15.30
2018-08-14T07:52:59.644Z,16.00
2018-08-14T07:55:27.926Z,14.23
2018-08-14T07:57:56.315Z,16.93
2018-08-14T08:00:25.522Z,15.80
2018-08-14T08:02:55.960Z,15.23
2018-08-14T08:05:24.224Z,15.90
2018-08-14T08:07:52.517Z,15.90
2018-08-14T08:10:20.816Z,15.50
2018-08-14T08:12:49.288Z,14.70
2018-08-14T08:15:18.937Z,14.77
2018-08-14T08:17:48.764Z,14.10
2018-08-14T08:20:30.122Z,13.10
2018-08-14T08:22:59.028Z,12.23
2018-08-14T08:25:28.117Z,13.20
2018-08-14T08:27:57.024Z,11.57
2018-08-14T08:30:25.585Z,13.10
2018-08-14T08:32:53.937Z,11.80
2018-08-14T08:35:22.249Z,12.50
2018-08-14T08:37:50.573Z,11.87
2018-08-14T08:40:18.910Z,11.87
2018-08-14T08:42:47.225Z,11.93
2018-08-14T08:45:15.550Z,12.93
2018-08-14T08:47:43.845Z,12.77
2018-08-14T08:50:13.874Z,13.93
2018-08-14T08:52:42.821Z,14.03
2018-08-14T08:55:13.137Z,13.43
2018-08-14T08:57:41.419Z,13.27
2018-08-14T09:00:13.216Z,12.57
2018-08-14T09:02:41.980Z,12.17
2018-08-14T09:05:12.410Z,10.00
2018-08-14T09:07:40.693Z,9.50
2018-08-14T09:10:11.557Z,10.80
2018-08-14T09:12:40.504Z,9.70
2018-08-14T09:15:09.420Z,10.27
2018-08-14T09:17:38.605Z,11.10
2018-08-14T09:20:08.337Z,12.10
2018-08-14T09:22:36.613Z,13.47
2018-08-14T09:25:06.461Z,13.83
2018-08-14T09:27:34.760Z,12.93
2018-08-14T09:30:03.073Z,12.60
2018-08-14T09:32:31.331Z,12.90
2018-08-14T09:34:59.597Z,10.00
2018-08-14T09:37:27.960Z,11.07
2018-08-14T09:39:56.237Z,10.43
2018-08-14T09:42:24.545Z,9.60
2018-08-14T09:44:52.828Z,9.23
2018-08-14T09:47:21.105Z,8.80
2018-08-14T09:49:49.398Z,9.30
2018-08-14T09:52:17.711Z,9.77
2018-08-14T09:54:45.977Z,9.23
2018-08-14T09:57:14.257Z,10.50
2018-08-14T09:59:42.538Z,10.60
2018-08-14T10:02:16.135Z,10.17
2018-08-14T10:04:49.836Z,9.20
2018-08-14T10:07:19.505Z,9.13
2018-08-14T10:09:47.965Z,9.50
2018-08-14T10:12:17.540Z,7.70
2018-08-14T10:14:50.015Z,6.77
2018-08-14T10:17:19.415Z,7.40
2018-08-14T10:19:47.671Z,7.30
2018-08-14T10:22:15.905Z,8.67
2018-08-14T10:24:44.348Z,11.30
2018-08-14T10:27:12.617Z,12.10
2018-08-14T10:29:41.492Z,13.03
2018-08-14T10:32:09.873Z,12.47
2018-08-14T10:34:40.339Z,13.17
2018-08-14T10:37:08.633Z,13.93
2018-08-14T10:39:36.942Z,12.03
2018-08-14T10:42:05.232Z,12.33
2018-08-14T10:44:33.609Z,11.93
2018-08-14T10:47:01.881Z,11.20
2018-08-14T10:49:30.188Z,11.83
2018-08-14T10:51:58.476Z,10.40
2018-08-14T10:54:26.760Z,12.47
2018-08-14T10:56:55.108Z,12.60
2018-08-14T10:59:23.529Z,11.97
2018-08-14T11:01:51.840Z,12.20
2018-08-14T11:04:20.177Z,12.90
2018-08-14T11:06:48.453Z,12.47
2018-08-14T11:09:16.824Z,13.43
2018-08-14T11:11:51.545Z,13.37
2018-08-14T11:14:23.828Z,15.53
2018-08-14T11:16:52.927Z,13.50
2018-08-14T11:19:23.808Z,13.90
2018-08-14T11:21:53.100Z,13.80
2018-08-14T11:24:21.353Z,15.20
2018-08-14T11:26:49.649Z,14.37
2018-08-14T11:29:17.913Z,13.57
2018-08-14T11:31:46.197Z,15.60
2018-08-14T11:34:14.485Z,16.20
2018-08-14T11:36:42.829Z,16.00
2018-08-14T11:39:11.176Z,15.53
2018-08-14T11:41:39.664Z,17.67
2018-08-14T11:44:07.992Z,15.93
2018-08-14T11:46:36.321Z,16.50
2018-08-14T11:49:04.586Z,16.53
2018-08-14T11:51:33.053Z,13.90
2018-08-14T11:54:01.336Z,12.27
2018-08-14T11:56:29.649Z,11.63
2018-08-14T11:58:58.065Z,10.17
2018-08-14T12:01:26.617Z,8.13
2018-08-14T12:03:54.873Z,7.73
2018-08-14T12:06:23.177Z,7.00
2018-08-14T12:08:51.505Z,7.93
2018-08-14T12:11:19.774Z,6.57
2018-08-14T12:13:48.045Z,7.00
2018-08-14T12:16:16.361Z,6.70
2018-08-14T12:18:44.629Z,6.80
2018-08-14T12:21:12.901Z,6.83
2018-08-14T12:23:41.173Z,5.67
2018-08-14T12:26:09.459Z,5.40
2018-08-14T12:28:37.749Z,4.67
2018-08-14T12:31:06.101Z,4.97
2018-08-14T12:33:35.388Z,5.00
2018-08-14T12:36:03.940Z,5.10
2018-08-14T12:38:32.228Z,4.83
2018-08-14T12:41:00.578Z,5.00
2018-08-14T12:43:28.902Z,3.40
2018-08-14T12:45:57.196Z,3.70
2018-08-14T12:48:25.504Z,4.20
2018-08-14T12:50:53.745Z,4.27
2018-08-14T12:53:22.029Z,5.20
2018-08-14T12:55:50.276Z,5.10
2018-08-14T12:58:18.594Z,6.13
2018-08-14T13:00:46.881Z,5.63
2018-08-14T13:03:15.174Z,6.10
2018-08-14T13:05:43.468Z,6.57
2018-08-14T13:08:11.706Z,5.70
2018-08-14T13:10:39.969Z,5.63
2018-08-14T13:13:08.228Z,7.00
2018-08-14T13:15:36.513Z,6.67
2018-08-14T13:18:08.489Z,5.60
2018-08-14T13:20:36.790Z,7.60
2018-08-14T13:23:05.729Z,5.73
2018-08-14T13:25:34.057Z,6.10
2018-08-14T13:28:03.521Z,6.07
2018-08-14T13:30:31.839Z,5.00
2018-08-14T13:33:00.129Z,5.10
2018-08-14T13:35:28.416Z,5.00
2018-08-14T13:37:56.802Z,5.60
2018-08-14T13:40:25.120Z,5.17
2018-08-14T13:42:53.471Z,6.13
2018-08-14T13:45:21.731Z,6.40
2018-08-14T13:47:50.015Z,6.23
2018-08-14T13:50:18.480Z,7.40
2018-08-14T13:52:47.845Z,7.30
2018-08-14T13:55:18.604Z,7.30
2018-08-14T13:57:47.673Z,7.40
2018-08-14T14:00:18.497Z,7.93
2018-08-14T14:02:48.824Z,7.57
2018-08-14T14:05:18.162Z,7.80
2018-08-14T14:07:47.452Z,8.90
2018-08-14T14:10:17.033Z,8.50
2018-08-14T14:12:45.313Z,7.83
2018-08-14T14:15:18.944Z,7.90
2018-08-14T14:17:48.396Z,8.40
2018-08-14T14:20:18.853Z,10.20
2018-08-14T14:22:47.149Z,8.13
2018-08-14T14:25:15.464Z,9.00
2018-08-14T14:27:43.800Z,9.93
2018-08-14T14:30:14.096Z,9.40
2018-08-14T14:32:42.917Z,11.77
2018-08-14T14:35:11.889Z,11.40
2018-08-14T14:37:40.933Z,9.50
2018-08-14T14:40:22.185Z,9.97
2018-08-14T14:42:52.297Z,11.43
2018-08-14T14:45:20.590Z,11.60
2018-08-14T14:47:48.893Z,10.60
2018-08-14T14:50:17.189Z,10.00
2018-08-14T14:52:45.930Z,10.47
2018-08-14T14:55:17.449Z,9.13
2018-08-14T14:57:46.095Z,9.90
2018-08-14T15:00:18.413Z,8.80
2018-08-14T15:02:48.741Z,7.80
2018-08-14T15:05:17.171Z,8.53
2018-08-14T15:07:46.313Z,8.83
2018-08-14T15:10:15.616Z,8.30
2018-08-14T15:12:43.885Z,8.30
2018-08-14T15:15:12.225Z,8.10
2018-08-14T15:17:41.363Z,7.10
2018-08-14T15:20:13.550Z,8.57
2018-08-14T15:22:43.076Z,7.40
2018-08-14T15:25:13.193Z,7.60
2018-08-14T15:27:52.905Z,5.70
2018-08-14T15:30:21.624Z,7.03
2018-08-14T15:32:50.417Z,5.27
2018-08-14T15:35:18.696Z,5.27
2018-08-14T15:37:47.003Z,6.10
2018-08-14T15:40:15.292Z,6.10
2018-08-14T15:42:43.612Z,7.07
2018-08-14T15:45:11.901Z,5.93
2018-08-14T15:47:40.149Z,6.43
2018-08-14T15:50:08.448Z,6.20
2018-08-14T15:59:36.676Z,4.90
2018-08-14T16:02:04.941Z,4.40
2018-08-14T16:04:33.188Z,4.47
2018-08-14T16:07:01.473Z,4.40
2018-08-14T16:09:29.905Z,3.60
2018-08-14T16:11:58.191Z,5.90
2018-08-14T16:14:26.457Z,3.43
2018-08-14T16:16:54.748Z,4.43
2018-08-14T16:19:23.051Z,3.60
2018-08-14T16:21:51.329Z,5.00
2018-08-14T16:24:19.615Z,4.77
2018-08-14T16:26:47.917Z,4.80
2018-08-14T16:29:16.167Z,4.47
2018-08-14T16:31:44.485Z,5.03
2018-08-14T16:34:12.764Z,5.10
2018-08-14T16:36:41.212Z,4.63
2018-08-14T16:39:11.705Z,4.80
2018-08-14T16:41:40.010Z,4.63
2018-08-14T16:44:08.361Z,4.60
2018-08-14T16:46:36.795Z,4.23
2018-08-14T16:49:05.022Z,4.00
2018-08-14T16:51:33.302Z,3.90
2018-08-14T16:54:01.580Z,4.07
2018-08-14T16:56:29.824Z,4.40
2018-08-14T16:58:58.128Z,5.33
2018-08-14T17:01:26.421Z,3.50
2018-08-14T17:03:55.870Z,3.90
2018-08-14T17:06:24.110Z,5.07
2018-08-14T17:08:52.524Z,5.30
2018-08-14T17:11:20.773Z,5.60
2018-08-14T17:13:49.084Z,6.07
2018-08-14T17:16:18.390Z,6.07
2018-08-14T17:18:46.777Z,5.77
2018-08-14T17:21:13.954Z,6.10
2018-08-14T17:23:42.225Z,5.10
2018-08-14T17:26:10.480Z,5.27
2018-08-14T17:28:38.772Z,5.57
2018-08-14T17:31:07.057Z,5.83
2018-08-14T17:33:36.428Z,5.87
2018-08-14T17:36:04.692Z,5.67
2018-08-14T17:38:32.964Z,6.57
2018-08-14T17:41:01.257Z,7.57
2018-08-14T17:43:29.597Z,6.10
2018-08-14T17:45:57.872Z,5.23
2018-08-14T17:48:27.177Z,6.53
2018-08-14T17:50:55.473Z,5.90
2018-08-14T17:53:23.728Z,5.73
2018-08-14T17:55:52.073Z,6.30
2018-08-14T17:58:20.405Z,5.37
2018-08-14T18:00:48.617Z,5.60
2018-08-14T18:03:16.890Z,5.60
2018-08-14T18:05:46.193Z,4.67
2018-08-14T18:08:14.469Z,5.43
2018-08-14T18:10:42.862Z,5.20
2018-08-14T18:13:11.128Z,4.80
2018-08-14T18:15:39.431Z,6.00
2018-08-14T18:18:07.766Z,5.37
2018-08-14T18:20:36.083Z,6.37
2018-08-14T18:23:04.326Z,5.70
2018-08-14T18:25:32.605Z,6.23
2018-08-14T18:28:00.880Z,5.60
2018-08-14T18:30:29.605Z,5.67
2018-08-14T18:32:57.852Z,6.43
2018-08-14T18:35:26.564Z,6.13
2018-08-14T18:37:54.838Z,6.13
2018-08-14T18:40:23.148Z,6.47
2018-08-14T18:42:51.517Z,6.10
2018-08-14T18:45:21.148Z,7.03
2018-08-14T18:47:49.449Z,7.07
2018-08-14T18:50:18.525Z,6.80
2018-08-14T18:52:46.829Z,7.40
2018-08-14T18:55:16.415Z,7.33
2018-08-14T18:57:45.637Z,8.40
2018-08-14T19:00:26.689Z,7.97
2018-08-14T19:02:56.469Z,10.50
2018-08-14T19:05:26.019Z,9.43
2018-08-14T19:07:54.370Z,9.40
2018-08-14T19:10:24.212Z,10.87
2018-08-14T19:12:53.328Z,10.30
2018-08-14T19:15:26.771Z,10.40
2018-08-14T19:17:55.068Z,10.10
2018-08-14T19:20:23.401Z,10.10
2018-08-14T19:22:51.688Z,10.87
2018-08-14T19:25:20.185Z,10.70
2018-08-14T19:27:48.504Z,9.67
2018-08-14T19:30:17.812Z,9.30
2018-08-14T19:32:46.256Z,9.53
2018-08-14T19:35:15.801Z,9.73
2018-08-14T19:37:44.141Z,9.80
2018-08-14T19:40:17.525Z,9.60
2018-08-14T19:42:46.485Z,8.03
2018-08-14T19:45:14.798Z,8.10
2018-08-14T19:47:43.100Z,8.40
2018-08-14T19:50:13.045Z,7.37
2018-08-14T19:52:41.856Z,7.63
2018-08-14T19:55:12.314Z,7.20
2018-08-14T19:57:42.001Z,6.60
2018-08-14T20:00:13.117Z,5.33
2018-08-14T20:02:42.193Z,5.83
2018-08-14T20:05:12.344Z,6.30
2018-08-14T20:07:40.637Z,6.10
2018-08-14T20:10:10.898Z,5.50
2018-08-14T20:12:39.215Z,4.60
2018-08-14T20:15:10.720Z,4.60
2018-08-14T20:17:39.082Z,5.30
2018-08-14T20:20:13.019Z,5.07
2018-08-14T20:22:41.289Z,5.17
2018-08-14T20:25:09.713Z,5.80
2018-08-14T20:27:38.121Z,5.13
2018-08-14T20:30:10.154Z,6.10
2018-08-14T20:32:38.790Z,5.70
2018-08-14T20:35:08.553Z,5.90
2018-08-14T20:37:36.969Z,6.07
2018-08-14T20:40:08.088Z,6.50
2018-08-14T20:42:36.533Z,7.60
2018-08-14T20:45:06.305Z,6.90
2018-08-14T20:47:34.617Z,5.77
2018-08-14T20:50:02.954Z,4.90
2018-08-14T20:52:31.341Z,4.20
2018-08-14T20:54:59.605Z,4.50
2018-08-14T20:57:27.905Z,5.80
2018-08-14T20:59:56.197Z,5.37
2018-08-14T21:02:24.562Z,6.23
2018-08-14T21:04:52.829Z,5.27
2018-08-14T21:07:21.125Z,5.10
2018-08-14T21:09:49.396Z,5.80
2018-08-14T21:12:21.817Z,6.20
2018-08-14T21:14:50.104Z,6.10
2018-08-14T21:17:18.409Z,5.10
2018-08-14T21:19:46.687Z,4.43
2018-08-14T21:22:14.952Z,4.20
2018-08-14T21:24:43.212Z,4.47
2018-08-14T21:27:11.509Z,4.70
2018-08-14T21:29:39.778Z,4.00
2018-08-14T21:32:08.033Z,3.00
2018-08-14T21:34:36.368Z,3.20
2018-08-14T21:37:04.726Z,2.50
2018-08-14T21:39:33.005Z,2.60
2018-08-14T21:42:01.281Z,2.60
2018-08-14T21:44:29.668Z,2.40
2018-08-14T21:46:57.924Z,1.70
2018-08-14T21:49:26.491Z,1.80
2018-08-14T21:51:54.816Z,2.23
2018-08-14T21:54:23.052Z,2.50
2018-08-14T21:56:51.367Z,2.10
2018-08-14T21:59:19.634Z,1.90
2018-08-14T22:01:47.922Z,1.93
2018-08-14T22:04:16.213Z,2.43
2018-08-14T22:06:46.529Z,1.80
2018-08-14T22:09:14.853Z,2.23
2018-08-14T22:11:43.110Z,2.00
2018-08-14T22:14:11.449Z,2.40
2018-08-14T22:16:40.209Z,2.00
2018-08-14T22:19:08.585Z,2.60
2018-08-14T22:21:36.841Z,2.30
2018-08-14T22:24:05.117Z,2.33
2018-08-14T22:26:33.432Z,2.23
2018-08-14T22:29:01.685Z,2.47
2018-08-14T22:31:30.029Z,2.47
2018-08-14T22:33:58.379Z,2.50
2018-08-14T22:36:26.684Z,2.20
2018-08-14T22:38:54.949Z,2.63
2018-08-14T22:41:23.273Z,2.53
2018-08-14T22:43:51.569Z,2.73
2018-08-14T22:46:19.858Z,2.33
2018-08-14T22:48:48.116Z,2.23
2018-08-14T22:51:16.415Z,2.23
2018-08-14T22:53:44.665Z,2.70
2018-08-14T22:56:12.962Z,1.80
2018-08-14T22:58:41.217Z,2.10
2018-08-14T23:01:09.548Z,1.97
2018-08-14T23:03:37.889Z,2.07
2018-08-14T23:06:06.405Z,2.07
2018-08-14T23:08:34.661Z,2.33
2018-08-14T23:11:03.257Z,2.80
2018-08-14T23:13:31.537Z,2.47
2018-08-14T23:16:05.680Z,2.23
2018-08-14T23:18:35.573Z,3.10
2018-08-14T23:21:03.941Z,2.33
2018-08-14T23:23:32.276Z,3.03
2018-08-14T23:26:00.561Z,2.90
2018-08-14T23:28:28.845Z,2.60
2018-08-14T23:30:57.095Z,3.00
2018-08-14T23:33:25.388Z,2.40
2018-08-14T23:35:53.673Z,2.70
2018-08-14T23:38:22.124Z,2.40
2018-08-14T23:40:50.393Z,2.43
2018-08-14T23:43:18.689Z,2.83
2018-08-14T23:45:46.977Z,2.40
2018-08-14T23:48:15.261Z,2.60
2018-08-14T23:50:43.512Z,2.00
2018-08-14T23:53:11.909Z,1.90
2018-08-14T23:55:40.144Z,2.27
2018-08-14T23:58:08.420Z,2.17
